createdAt,value
2017-11-29T00:02:33.258Z,63.70
2017-11-29T00:05:02.813Z,63.80
2017-11-29T00:07:31.485Z,63.70
2017-11-29T00:10:06.376Z,63.80
2017-11-29T00:12:41.961Z,64.00
2017-11-29T00:15:10.657Z,63.80
2017-11-29T00:17:39.329Z,64.00
2017-11-29T00:20:14.043Z,64.00
2017-11-29T00:22:42.717Z,64.00
2017-11-29T00:25:11.396Z,64.00
2017-11-29T00:27:40.847Z,63.70
2017-11-29T00:30:15.739Z,63.60
2017-11-29T00:32:44.409Z,63.60
2017-11-29T00:35:13.077Z,63.50
2017-11-29T00:37:42.520Z,63.60
2017-11-29T00:40:11.201Z,63.60
2017-11-29T00:42:46.158Z,63.70
2017-11-29T00:45:14.824Z,63.70
2017-11-29T00:47:43.516Z,63.80
2017-11-29T00:50:32.451Z,63.70
2017-11-29T00:53:02.727Z,63.60
2017-11-29T00:58:14.182Z,63.70
2017-11-29T01:00:42.856Z,63.70
2017-11-29T01:03:11.526Z,63.50
2017-11-29T01:05:42.687Z,63.50
2017-11-29T01:08:12.041Z,63.40
2017-11-29T01:10:40.729Z,63.50
2017-11-29T01:13:09.405Z,63.40
2017-11-29T01:15:38.079Z,63.50
2017-11-29T01:18:07.085Z,63.50
2017-11-29T01:20:35.756Z,63.60
2017-11-29T01:23:04.429Z,63.70
2017-11-29T01:25:35.100Z,63.70
2017-11-29T01:28:03.755Z,63.60
2017-11-29T01:30:32.427Z,63.50
2017-11-29T01:33:01.956Z,63.50
2017-11-29T01:35:35.198Z,63.50
2017-11-29T01:41:10.543Z,63.60
2017-11-29T01:43:39.986Z,63.60
2017-11-29T01:46:08.661Z,63.60
2017-11-29T01:48:42.100Z,63.70
2017-11-29T01:51:25.827Z,63.80
2017-11-29T01:53:54.516Z,63.70
2017-11-29T01:56:23.186Z,63.50
2017-11-29T01:58:56.012Z,63.60
2017-11-29T02:01:24.671Z,63.60
2017-11-29T02:03:53.355Z,63.50
2017-11-29T02:06:26.823Z,63.50
2017-11-29T02:08:56.375Z,63.30
2017-11-29T02:11:25.051Z,63.30
2017-11-29T02:13:53.723Z,63.50
2017-11-29T02:16:22.405Z,63.60
2017-11-29T02:18:51.113Z,63.50
2017-11-29T02:21:19.784Z,63.50
2017-11-29T02:23:48.457Z,63.30
2017-11-29T02:26:23.549Z,63.00
2017-11-29T02:31:28.101Z,63.10
2017-11-29T02:33:56.770Z,63.30
2017-11-29T02:36:26.229Z,63.60
2017-11-29T02:38:54.903Z,63.60
2017-11-29T02:41:41.468Z,64.10
2017-11-29T02:44:11.842Z,64.40
2017-11-29T02:46:46.081Z,64.40
2017-11-29T02:49:14.740Z,64.40
2017-11-29T02:51:43.413Z,64.30
2017-11-29T02:54:12.087Z,64.40
2017-11-29T02:56:40.779Z,64.40
2017-11-29T02:59:09.448Z,64.20
2017-11-29T03:01:38.969Z,64.20
2017-11-29T03:04:07.646Z,64.20
2017-11-29T03:06:36.313Z,64.30
2017-11-29T03:09:05.769Z,64.30
2017-11-29T03:11:34.468Z,65.00
2017-11-29T03:14:03.140Z,64.30
2017-11-29T03:16:31.813Z,64.90
2017-11-29T03:19:01.353Z,64.30
2017-11-29T03:21:30.068Z,64.90
2017-11-29T03:23:59.553Z,64.00
2017-11-29T03:26:31.249Z,64.00
2017-11-29T03:28:59.919Z,64.00
2017-11-29T03:31:28.585Z,63.80
2017-11-29T03:34:03.172Z,63.90
2017-11-29T03:36:43.119Z,63.90
2017-11-29T03:39:17.278Z,63.90
2017-11-29T03:41:57.125Z,63.80
2017-11-29T03:44:32.584Z,63.80
2017-11-29T03:47:07.418Z,63.90
2017-11-29T03:49:50.299Z,63.80
2017-11-29T03:52:19.463Z,63.60
2017-11-29T03:55:03.437Z,63.40
2017-11-29T03:57:33.105Z,63.40
2017-11-29T04:00:07.989Z,63.40
2017-11-29T04:02:44.494Z,63.60
2017-11-29T04:07:58.266Z,63.60
2017-11-29T04:10:34.334Z,63.60
2017-11-29T04:13:09.247Z,63.70
2017-11-29T04:18:40.638Z,63.80
2017-11-29T04:23:52.681Z,63.80
2017-11-29T04:26:21.352Z,63.50
2017-11-29T04:29:05.749Z,63.40
2017-11-29T04:31:43.176Z,63.70
2017-11-29T04:34:12.013Z,63.60
2017-11-29T04:36:40.673Z,63.80
2017-11-29T04:39:18.612Z,63.80
2017-11-29T04:42:13.674Z,63.90
2017-11-29T04:44:46.462Z,63.90
2017-11-29T04:47:19.484Z,64.00
2017-11-29T04:49:49.217Z,64.10
2017-11-29T04:52:20.790Z,64.30
2017-11-29T04:54:50.364Z,64.10
2017-11-29T04:57:25.209Z,64.10
2017-11-29T04:59:53.895Z,63.50
2017-11-29T05:02:28.725Z,63.30
2017-11-29T05:05:03.732Z,63.50
2017-11-29T05:07:38.701Z,63.70
2017-11-29T05:10:13.869Z,63.90
2017-11-29T05:12:49.095Z,63.90
2017-11-29T05:15:21.355Z,63.90
2017-11-29T05:17:50.209Z,63.80
2017-11-29T05:20:19.376Z,63.80
2017-11-29T05:22:54.834Z,63.60
2017-11-29T05:25:30.803Z,63.60
2017-11-29T05:28:06.504Z,63.20
2017-11-29T05:30:42.066Z,62.40
2017-11-29T05:33:13.013Z,62.30
2017-11-29T05:35:42.539Z,62.20
2017-11-29T05:38:20.122Z,62.40
2017-11-29T05:40:55.471Z,62.50
2017-11-29T05:43:26.214Z,62.30
2017-11-29T05:45:55.620Z,62.30
2017-11-29T05:48:26.677Z,61.60
2017-11-29T05:51:02.345Z,62.00
2017-11-29T05:53:31.077Z,62.10
2017-11-29T05:56:00.987Z,62.30
2017-11-29T05:58:36.021Z,62.20
2017-11-29T06:01:04.983Z,62.20
2017-11-29T06:03:35.257Z,62.30
2017-11-29T06:06:04.387Z,62.40
2017-11-29T06:08:33.061Z,62.60
2017-11-29T06:11:01.739Z,62.60
2017-11-29T06:13:31.356Z,62.50
2017-11-29T06:16:05.077Z,62.60
2017-11-29T06:18:34.563Z,62.80
2017-11-29T06:21:04.093Z,62.80
2017-11-29T06:23:32.761Z,62.90
2017-11-29T06:26:01.442Z,63.00
2017-11-29T06:28:31.050Z,62.90
2017-11-29T06:30:59.738Z,63.00
2017-11-29T06:33:28.411Z,63.20
2017-11-29T06:35:57.077Z,63.20
2017-11-29T06:38:25.756Z,63.20
2017-11-29T06:40:54.433Z,63.20
2017-11-29T06:43:23.912Z,63.40
2017-11-29T06:45:52.583Z,63.30
2017-11-29T06:48:27.569Z,63.60
2017-11-29T06:50:56.245Z,63.80
2017-11-29T06:53:24.954Z,63.90
2017-11-29T06:56:05.511Z,64.00
2017-11-29T06:58:34.252Z,64.10
2017-11-29T07:01:02.925Z,64.10
2017-11-29T07:03:31.626Z,64.40
2017-11-29T07:06:00.315Z,64.40
2017-11-29T07:08:28.989Z,64.30
2017-11-29T07:11:03.896Z,64.30
2017-11-29T07:13:38.833Z,64.10
2017-11-29T07:16:13.865Z,64.00
2017-11-29T07:18:42.544Z,64.70
2017-11-29T07:21:11.245Z,64.10
2017-11-29T07:23:46.136Z,64.10
2017-11-29T07:26:14.844Z,64.00
2017-11-29T07:28:43.525Z,64.00
2017-11-29T07:31:19.239Z,64.00
2017-11-29T07:33:47.929Z,64.00
2017-11-29T07:36:16.616Z,64.00
2017-11-29T07:38:51.416Z,64.10
2017-11-29T07:41:20.954Z,64.00
2017-11-29T07:43:49.637Z,64.50
2017-11-29T07:46:24.662Z,63.60
2017-11-29T07:48:54.101Z,63.90
2017-11-29T07:51:22.781Z,63.80
2017-11-29T07:53:57.612Z,63.90
2017-11-29T07:56:27.176Z,63.90
2017-11-29T07:59:02.813Z,64.00
2017-11-29T08:01:37.777Z,63.90
2017-11-29T08:04:06.453Z,63.90
2017-11-29T08:06:35.938Z,63.70
2017-11-29T08:09:04.624Z,63.60
2017-11-29T08:11:33.309Z,63.40
2017-11-29T08:14:08.284Z,62.90
2017-11-29T08:16:36.973Z,62.40
2017-11-29T08:19:05.687Z,61.90
2017-11-29T08:21:34.359Z,61.60
2017-11-29T08:24:04.696Z,62.30
2017-11-29T08:26:33.362Z,62.20
2017-11-29T08:29:02.044Z,62.50
2017-11-29T08:31:30.775Z,62.70
2017-11-29T08:33:59.447Z,62.70
2017-11-29T08:36:28.129Z,62.30
2017-11-29T08:38:56.809Z,61.80
2017-11-29T08:41:31.822Z,61.00
2017-11-29T08:44:00.517Z,61.30
2017-11-29T08:46:35.471Z,61.80
2017-11-29T08:49:10.477Z,60.90
2017-11-29T08:51:39.171Z,59.90
2017-11-29T08:54:07.861Z,58.80
2017-11-29T08:56:38.201Z,58.40
2017-11-29T08:59:06.889Z,58.40
2017-11-29T09:01:35.568Z,58.20
2017-11-29T09:04:05.129Z,58.10
2017-11-29T09:06:33.820Z,57.90
2017-11-29T09:09:09.378Z,58.30
2017-11-29T09:11:38.073Z,58.20
2017-11-29T09:14:07.792Z,58.30
2017-11-29T09:16:36.480Z,58.30
2017-11-29T09:19:05.177Z,58.50
2017-11-29T09:21:33.866Z,58.50
2017-11-29T09:24:02.566Z,58.20
2017-11-29T09:26:32.021Z,57.40
2017-11-29T09:29:00.716Z,57.40
2017-11-29T09:31:35.657Z,57.50
2017-11-29T09:34:04.378Z,57.50
2017-11-29T09:36:34.809Z,55.10
2017-11-29T09:39:04.276Z,54.60
2017-11-29T09:41:32.969Z,54.50
2017-11-29T09:44:07.896Z,54.10
2017-11-29T09:46:42.788Z,54.30
2017-11-29T09:49:11.489Z,54.40
2017-11-29T09:51:46.339Z,54.60
2017-11-29T09:54:21.321Z,54.60
2017-11-29T09:56:49.999Z,54.50
2017-11-29T09:59:24.991Z,53.90
2017-11-29T10:01:53.677Z,51.00
2017-11-29T10:04:22.367Z,49.60
2017-11-29T10:06:51.098Z,45.50
2017-11-29T10:09:19.776Z,42.80
2017-11-29T10:11:49.236Z,35.90
2017-11-29T10:14:24.158Z,35.80
2017-11-29T10:16:52.864Z,33.90
2017-11-29T10:19:21.540Z,33.90
2017-11-29T10:21:50.220Z,33.30
2017-11-29T10:24:19.932Z,34.40
2017-11-29T10:26:48.678Z,35.10
2017-11-29T10:29:17.341Z,37.20
2017-11-29T10:31:46.800Z,40.10
2017-11-29T10:34:15.486Z,40.00
2017-11-29T10:36:44.205Z,40.50
2017-11-29T10:39:12.889Z,39.90
2017-11-29T10:41:41.589Z,40.20
2017-11-29T10:46:51.770Z,41.60
2017-11-29T10:49:21.218Z,42.20
2017-11-29T10:51:49.906Z,42.20
2017-11-29T10:54:19.644Z,43.70
2017-11-29T10:56:48.350Z,44.50
2017-11-29T10:59:23.361Z,45.70
2017-11-29T11:01:59.075Z,48.00
2017-11-29T11:04:28.612Z,47.90
2017-11-29T11:07:03.556Z,49.10
2017-11-29T11:09:38.544Z,49.90
2017-11-29T11:12:09.230Z,50.60
2017-11-29T11:14:43.965Z,51.00
2017-11-29T11:17:18.724Z,51.00
2017-11-29T11:19:47.425Z,51.30
2017-11-29T11:22:18.874Z,51.50
2017-11-29T11:24:47.572Z,51.50
2017-11-29T11:27:17.869Z,51.30
2017-11-29T11:29:46.561Z,51.20
2017-11-29T11:32:16.130Z,51.30
2017-11-29T11:34:45.897Z,51.20
2017-11-29T11:37:20.717Z,51.10
2017-11-29T11:39:49.443Z,51.50
2017-11-29T11:42:18.191Z,52.10
2017-11-29T11:44:53.033Z,52.20
2017-11-29T11:47:21.757Z,52.70
2017-11-29T11:49:50.449Z,52.40
2017-11-29T11:52:19.140Z,52.40
2017-11-29T11:54:53.944Z,52.30
2017-11-29T11:57:29.726Z,53.40
2017-11-29T11:59:59.396Z,53.30
2017-11-29T12:02:35.128Z,53.50
2017-11-29T12:05:03.812Z,54.00
2017-11-29T12:07:32.534Z,53.60
2017-11-29T12:10:01.986Z,53.80
2017-11-29T12:12:30.675Z,53.70
2017-11-29T12:14:59.362Z,54.00
2017-11-29T12:17:28.046Z,54.40
2017-11-29T12:19:56.756Z,54.10
2017-11-29T12:22:31.584Z,54.10
2017-11-29T12:25:04.311Z,54.50
2017-11-29T12:27:33.883Z,54.70
2017-11-29T12:30:02.593Z,54.40
2017-11-29T12:32:31.265Z,55.00
2017-11-29T12:35:06.157Z,55.20
2017-11-29T12:37:35.051Z,55.70
2017-11-29T12:40:03.774Z,56.00
2017-11-29T12:42:33.221Z,55.70
2017-11-29T12:45:05.359Z,55.70
2017-11-29T12:47:41.345Z,55.00
2017-11-29T12:50:27.727Z,54.50
2017-11-29T12:52:57.589Z,54.40
2017-11-29T12:55:32.800Z,53.90
2017-11-29T12:58:01.460Z,54.00
2017-11-29T13:00:30.589Z,54.10
2017-11-29T13:03:05.489Z,54.20
2017-11-29T13:05:36.161Z,54.40
2017-11-29T13:08:10.911Z,54.90
2017-11-29T13:10:40.449Z,55.20
2017-11-29T13:13:10.069Z,54.90
2017-11-29T13:15:46.956Z,55.00
2017-11-29T13:18:17.676Z,54.90
2017-11-29T13:20:49.143Z,54.50
2017-11-29T13:23:19.783Z,54.50
2017-11-29T13:25:56.980Z,55.00
2017-11-29T13:28:25.673Z,54.70
2017-11-29T13:30:54.582Z,55.10
2017-11-29T13:33:29.591Z,53.80
2017-11-29T13:36:05.308Z,52.40
2017-11-29T13:38:34.072Z,52.30
2017-11-29T13:41:03.564Z,51.20
2017-11-29T13:43:38.560Z,51.20
2017-11-29T13:46:13.533Z,51.00
2017-11-29T13:48:43.020Z,50.10
2017-11-29T13:51:17.842Z,50.00
2017-11-29T13:53:52.811Z,50.40
2017-11-29T13:59:04.616Z,51.20
2017-11-29T14:01:33.292Z,52.20
2017-11-29T14:04:02.728Z,52.80
2017-11-29T14:06:37.545Z,52.70
2017-11-29T14:09:06.680Z,53.10
2017-11-29T14:11:41.473Z,53.50
2017-11-29T14:14:10.154Z,53.00
2017-11-29T14:16:38.883Z,53.40
2017-11-29T14:19:07.586Z,53.60
2017-11-29T14:21:36.263Z,54.20
2017-11-29T14:24:04.947Z,54.50
2017-11-29T14:26:36.205Z,55.30
2017-11-29T14:29:04.884Z,55.20
2017-11-29T14:31:37.578Z,55.50
2017-11-29T14:34:06.326Z,55.30
2017-11-29T14:36:41.191Z,55.30
2017-11-29T14:39:16.050Z,55.40
2017-11-29T14:41:45.625Z,55.70
2017-11-29T14:44:14.292Z,55.70
2017-11-29T14:46:49.284Z,55.70
2017-11-29T14:49:18.709Z,55.90
2017-11-29T14:51:47.394Z,55.90
2017-11-29T14:54:16.260Z,56.20
2017-11-29T14:56:45.664Z,56.50
2017-11-29T14:59:14.484Z,56.50
2017-11-29T15:01:49.568Z,56.70
2017-11-29T15:04:18.341Z,57.10
2017-11-29T15:06:53.229Z,57.40
2017-11-29T15:09:21.901Z,57.00
2017-11-29T15:11:50.639Z,57.20
2017-11-29T15:14:24.660Z,57.20
2017-11-29T15:16:53.345Z,57.10
2017-11-29T15:19:22.069Z,58.10
2017-11-29T15:21:57.059Z,57.70
2017-11-29T15:24:25.747Z,58.30
2017-11-29T15:26:54.432Z,57.50
2017-11-29T15:29:23.105Z,58.10
2017-11-29T15:31:59.970Z,57.60
2017-11-29T15:34:34.861Z,57.80
2017-11-29T15:37:03.536Z,57.80
2017-11-29T15:39:33.022Z,58.00
2017-11-29T15:42:03.633Z,57.90
2017-11-29T15:44:33.212Z,58.00
2017-11-29T15:47:01.944Z,58.00
2017-11-29T15:49:30.604Z,57.60
2017-11-29T15:52:00.236Z,57.20
2017-11-29T15:54:34.995Z,57.20
2017-11-29T15:57:03.716Z,57.10
2017-11-29T15:59:32.384Z,57.30
2017-11-29T16:02:01.066Z,57.40
2017-11-29T16:04:29.770Z,57.60
2017-11-29T16:07:04.583Z,57.70
2017-11-29T16:09:33.273Z,58.50
2017-11-29T16:12:08.272Z,58.20
2017-11-29T16:14:43.152Z,58.50
2017-11-29T16:17:11.866Z,58.50
2017-11-29T16:19:40.556Z,58.30
2017-11-29T16:22:15.372Z,58.40
2017-11-29T16:24:47.622Z,58.70
2017-11-29T16:27:18.055Z,58.90
2017-11-29T16:29:46.752Z,58.80
2017-11-29T16:32:15.449Z,59.00
2017-11-29T16:34:50.342Z,58.80
2017-11-29T16:37:24.876Z,58.60
2017-11-29T16:39:59.823Z,58.70
2017-11-29T16:42:37.225Z,58.40
2017-11-29T16:45:05.931Z,58.40
2017-11-29T16:47:35.372Z,58.60
2017-11-29T16:50:13.732Z,58.50
2017-11-29T16:52:42.401Z,58.00
2017-11-29T16:55:14.481Z,58.40
2017-11-29T16:57:49.401Z,58.70
2017-11-29T17:00:18.086Z,59.10
2017-11-29T17:02:50.786Z,59.80
2017-11-29T17:05:20.421Z,60.00
2017-11-29T17:07:55.186Z,60.00
2017-11-29T17:10:23.889Z,60.20
2017-11-29T17:12:53.435Z,60.10
2017-11-29T17:15:28.431Z,60.10
2017-11-29T17:18:03.233Z,60.10
2017-11-29T17:20:31.954Z,59.90
2017-11-29T17:23:00.629Z,59.70
2017-11-29T17:25:29.295Z,59.10
2017-11-29T17:27:57.985Z,59.00
2017-11-29T17:30:32.886Z,59.10
2017-11-29T17:33:01.606Z,58.80
2017-11-29T17:35:34.262Z,58.80
2017-11-29T17:38:02.948Z,58.20
2017-11-29T17:40:37.948Z,58.30
2017-11-29T17:43:07.404Z,58.10
2017-11-29T17:45:42.322Z,58.20
2017-11-29T17:48:11.022Z,58.20
2017-11-29T17:50:45.889Z,58.20
2017-11-29T17:53:15.345Z,59.20
2017-11-29T17:55:50.199Z,59.40
2017-11-29T17:58:18.899Z,59.40
2017-11-29T18:00:48.360Z,59.50
2017-11-29T18:03:17.892Z,59.40
2017-11-29T18:05:53.185Z,59.30
2017-11-29T18:08:21.848Z,59.30
2017-11-29T18:10:51.296Z,59.00
2017-11-29T18:13:19.975Z,58.80
2017-11-29T18:15:48.651Z,59.10
2017-11-29T18:18:25.336Z,59.10
2017-11-29T18:21:00.340Z,59.00
2017-11-29T18:23:29.021Z,59.00
2017-11-29T18:25:57.710Z,58.80
2017-11-29T18:28:26.379Z,58.90
2017-11-29T18:31:01.159Z,58.80
2017-11-29T18:33:36.093Z,59.00
2017-11-29T18:36:11.020Z,59.00
2017-11-29T18:38:39.693Z,58.90
2017-11-29T18:41:16.590Z,58.70
2017-11-29T18:43:45.281Z,58.90
2017-11-29T18:46:20.300Z,58.90
2017-11-29T18:48:49.021Z,59.30
2017-11-29T18:51:23.837Z,59.60
2017-11-29T18:53:59.781Z,59.60
2017-11-29T18:56:34.701Z,59.80
2017-11-29T18:59:03.444Z,59.90
2017-11-29T19:01:34.866Z,60.10
2017-11-29T19:04:03.653Z,60.10
2017-11-29T19:06:38.607Z,60.10
2017-11-29T19:09:13.535Z,60.10
2017-11-29T19:11:47.409Z,60.20
2017-11-29T19:14:22.294Z,60.10
2017-11-29T19:17:07.893Z,60.40
2017-11-29T19:19:36.557Z,60.30
2017-11-29T19:22:06.013Z,60.70
2017-11-29T19:24:34.770Z,60.70
2017-11-29T19:27:09.734Z,60.80
2017-11-29T19:29:44.758Z,60.90
2017-11-29T19:32:19.700Z,61.00
2017-11-29T19:34:54.535Z,61.00
2017-11-29T19:37:29.441Z,61.10
2017-11-29T19:39:58.130Z,61.10
2017-11-29T19:42:36.658Z,61.30
2017-11-29T19:45:05.439Z,61.20
2017-11-29T19:47:35.195Z,61.20
2017-11-29T19:50:04.733Z,61.10
2017-11-29T19:52:39.994Z,61.10
2017-11-29T19:55:08.817Z,61.00
2017-11-29T19:57:44.590Z,61.40
2017-11-29T20:00:14.074Z,61.50
2017-11-29T20:02:44.037Z,61.50
2017-11-29T20:05:14.912Z,61.50
2017-11-29T20:07:43.687Z,61.60
2017-11-29T20:10:12.384Z,61.40
2017-11-29T20:12:41.137Z,61.40
2017-11-29T20:15:11.039Z,61.30
2017-11-29T20:17:39.791Z,61.20
2017-11-29T20:20:14.989Z,61.10
2017-11-29T20:22:50.390Z,61.00
2017-11-29T20:25:21.707Z,60.80
2017-11-29T20:27:50.728Z,60.70
2017-11-29T20:30:19.454Z,60.70
2017-11-29T20:32:48.285Z,60.80
2017-11-29T20:35:23.189Z,60.90
2017-11-29T20:37:58.054Z,60.90
2017-11-29T20:40:26.725Z,61.20
2017-11-29T20:43:01.652Z,61.20
2017-11-29T20:45:30.516Z,61.40
2017-11-29T20:47:59.453Z,61.70
2017-11-29T20:50:28.417Z,61.80
2017-11-29T20:53:02.900Z,61.60
2017-11-29T20:55:37.856Z,61.90
2017-11-29T20:58:12.702Z,61.90
2017-11-29T21:00:42.396Z,61.80
2017-11-29T21:03:12.226Z,61.80
2017-11-29T21:05:42.737Z,61.70
2017-11-29T21:08:16.493Z,62.30
2017-11-29T21:10:51.707Z,61.10
2017-11-29T21:13:21.517Z,61.00
2017-11-29T21:15:52.635Z,61.10
2017-11-29T21:18:21.885Z,61.10
2017-11-29T21:20:51.146Z,61.30
2017-11-29T21:23:21.488Z,61.40
2017-11-29T21:25:52.301Z,61.40
2017-11-29T21:28:21.470Z,61.40
2017-11-29T21:30:50.818Z,61.50
2017-11-29T21:33:22.252Z,61.40
2017-11-29T21:35:51.329Z,61.40
2017-11-29T21:38:31.983Z,61.50
2017-11-29T21:41:02.045Z,61.60
2017-11-29T21:43:38.594Z,61.70
2017-11-29T21:46:13.778Z,61.50
2017-11-29T21:48:44.795Z,61.50
2017-11-29T21:51:26.289Z,61.60
2017-11-29T21:54:03.458Z,61.60
2017-11-29T21:56:46.056Z,61.50
2017-11-29T21:59:17.297Z,61.30
2017-11-29T22:01:48.598Z,61.10
2017-11-29T22:04:24.133Z,61.00
2017-11-29T22:06:54.924Z,61.00
2017-11-29T22:09:25.276Z,61.00
2017-11-29T22:11:56.740Z,60.90
2017-11-29T22:14:33.938Z,60.80
2017-11-29T22:17:06.755Z,60.90
2017-11-29T22:19:43.936Z,60.80
2017-11-29T22:22:16.159Z,60.80
2017-11-29T22:24:47.075Z,60.60
2017-11-29T22:27:22.144Z,60.60
2017-11-29T22:29:57.306Z,60.50
2017-11-29T22:32:26.688Z,60.70
2017-11-29T22:35:01.271Z,60.70
2017-11-29T22:37:49.731Z,60.70
2017-11-29T22:40:25.390Z,60.70
2017-11-29T22:43:03.426Z,60.80
2017-11-29T22:45:49.101Z,60.80
2017-11-29T22:51:04.395Z,60.70
2017-11-29T22:53:38.251Z,60.40
2017-11-29T22:56:22.516Z,60.50
2017-11-29T22:59:08.945Z,60.40
2017-11-29T23:01:47.677Z,60.50
2017-11-29T23:04:18.696Z,60.90
2017-11-29T23:06:53.659Z,61.00
2017-11-29T23:09:28.938Z,61.00
2017-11-29T23:11:59.178Z,61.10
2017-11-29T23:14:38.844Z,61.30
2017-11-29T23:17:09.103Z,61.10
2017-11-29T23:19:39.083Z,60.70
2017-11-29T23:22:09.289Z,60.70
2017-11-29T23:24:47.107Z,60.50
2017-11-29T23:27:18.539Z,60.40
2017-11-29T23:29:49.931Z,60.60
2017-11-29T23:32:18.872Z,60.50
2017-11-29T23:34:49.712Z,60.30
2017-11-29T23:37:22.044Z,60.30
2017-11-29T23:40:00.538Z,60.10
2017-11-29T23:42:35.489Z,59.90
2017-11-29T23:45:19.246Z,59.70
2017-11-29T23:47:56.019Z,59.90
2017-11-29T23:50:31.710Z,60.40
